Time;durP1;ratioP1;P1;durP2;ratioP2;P2;SDS_P1;SDS_P2;PMS_P1;PMS_P2;Temp;Humidity;BMP_temperature;BMP_pressure;BME280_temperature;BME280_humidity;BME280_pressure;Samples;Min_cycle;Max_cycle;Signal;HPM_P1;HPM_P2
2023/05/31 00:01:48;;;;;;;3.70;2.70;;;;;;;12.73;91.76;102579.22;5110200;28;20472;-36
2023/05/31 00:04:13;;;;;;;3.42;2.63;;;;;;;12.57;92.49;102559.53;5110006;28;20429;-36
2023/05/31 00:06:39;;;;;;;3.97;2.80;;;;;;;12.69;92.76;102577.94;5110318;28;20040;-36
2023/05/31 00:09:04;;;;;;;3.53;2.90;;;;;;;12.59;92.91;102575.59;5110301;28;20272;-36
2023/05/31 00:11:30;;;;;;;3.30;2.90;;;;;;;12.56;93.65;102574.16;5102512;28;20024;-36
2023/05/31 00:13:55;;;;;;;3.75;2.42;;;;;;;12.65;91.67;102582.13;5097119;28;20426;-36
2023/05/31 00:16:20;;;;;;;;;;;;;;;12.74;89.79;102580.91;5097541;28;20107;-36
2023/05/31 00:18:46;;;;;;;3.17;2.40;;;;;;;12.58;92.54;102561.19;5096715;28;20399;-36
2023/05/31 00:21:11;;;;;;;3.13;2.58;;;;;;;12.50;93.85;102580.38;5096429;28;20626;-36
2023/05/31 00:23:37;;;;;;;4.07;3.00;;;;;;;12.47;95.11;102578.06;5096893;28;20032;-36
2023/05/31 00:26:02;;;;;;;4.30;2.50;;;;;;;12.47;95.22;102579.94;5096956;28;20028;-36
2023/05/31 00:28:27;;;;;;;5.77;3.00;;;;;;;12.47;94.78;102579.94;5096049;28;20495;-37
2023/05/31 00:30:53;;;;;;;4.60;2.73;;;;;;;12.41;95.70;102578.03;5096537;28;20277;-36
2023/05/31 00:33:18;;;;;;;3.00;2.60;;;;;;;12.34;95.90;102567.13;5096221;28;20875;-36
2023/05/31 00:35:44;;;;;;;4.93;3.10;;;;;;;12.35;96.88;102585.13;5096540;28;20254;-36
2023/05/31 00:38:09;;;;;;;4.38;2.67;;;;;;;12.38;96.17;102574.69;5096113;28;20327;-36
2023/05/31 00:40:35;;;;;;;3.28;2.50;;;;;;;12.42;96.39;102568.84;5096089;28;20034;-36
2023/05/31 00:43:00;;;;;;;4.20;2.83;;;;;;;12.40;96.75;102577.22;5096021;28;20169;-36
2023/05/31 00:45:26;;;;;;;2.92;2.63;;;;;;;12.39;97.36;102570.09;5096073;28;20173;-36
2023/05/31 00:47:51;;;;;;;2.95;2.20;;;;;;;12.34;96.69;102564.44;5095882;28;20028;-36
2023/05/31 00:50:17;;;;;;;3.97;3.00;;;;;;;12.37;97.61;102585.75;5096246;28;20031;-37
2023/05/31 00:52:49;;;;;;;3.45;2.72;;;;;;;12.28;97.08;102582.34;5095522;28;20468;-37
2023/05/31 00:55:16;;;;;;;3.63;3.00;;;;;;;12.32;97.98;102588.22;5096360;28;20043;-36
2023/05/31 00:57:41;;;;;;;3.20;2.80;;;;;;;12.34;98.14;102591.56;5096279;28;20358;-37
2023/05/31 01:00:08;;;;;;;4.95;2.70;;;;;;;12.28;98.32;102586.94;5095960;28;20044;-37
2023/05/31 01:02:37;;;;;;;4.90;2.55;;;;;;;12.33;98.67;102579.03;5095938;28;20032;-37
2023/05/31 01:05:05;;;;;;;3.60;2.83;;;;;;;12.26;99.02;102586.31;5095579;28;20020;-36
2023/05/31 01:07:30;;;;;;;3.40;2.60;;;;;;;12.29;99.02;102592.16;5095845;28;20024;-36
2023/05/31 01:09:56;;;;;;;3.08;2.67;;;;;;;12.29;98.75;102594.88;5095440;28;20039;-37
2023/05/31 01:12:55;;;;;;;4.30;2.67;;;;;;;12.19;98.96;102583.53;5095793;28;20028;-37
2023/05/31 01:15:30;;;;;;;3.08;2.78;;;;;;;12.22;98.92;102590.47;5096256;28;20035;-37
2023/05/31 01:18:09;;;;;;;4.10;3.05;;;;;;;12.18;99.84;102589.16;5095403;28;20028;-36
2023/05/31 01:20:35;;;;;;;3.72;3.10;;;;;;;12.14;97.93;102586.00;5095256;28;20039;-37
2023/05/31 01:23:21;;;;;;;4.00;2.90;;;;;;;12.12;99.96;102566.41;5094228;28;20062;-37
2023/05/31 01:26:12;;;;;;;3.70;3.28;;;;;;;12.03;100.00;102570.31;5094873;28;20032;-36
2023/05/31 01:28:41;;;;;;;4.03;3.38;;;;;;;12.06;100.00;102586.19;5095136;28;20031;-37
2023/05/31 01:31:14;;;;;;;4.45;3.13;;;;;;;12.02;100.00;102574.91;5095393;28;20062;-37
2023/05/31 01:33:41;;;;;;;4.22;2.92;;;;;;;12.05;100.00;102588.06;5095328;28;20101;-37
2023/05/31 01:36:06;;;;;;;5.10;2.88;;;;;;;12.00;100.00;102592.38;5095843;28;20475;-36
2023/05/31 01:38:31;;;;;;;3.95;2.88;;;;;;;11.98;100.00;102580.91;5094926;28;20110;-37
2023/05/31 01:40:57;;;;;;;4.63;3.13;;;;;;;11.88;100.00;102581.25;5094582;28;20032;-37
2023/05/31 01:43:28;;;;;;;5.25;3.20;;;;;;;11.96;100.00;102589.25;5094835;28;20031;-36
2023/05/31 01:45:57;;;;;;;4.40;3.17;;;;;;;11.82;100.00;102585.59;5094792;28;20028;-36
2023/05/31 01:48:24;;;;;;;3.80;3.10;;;;;;;11.88;100.00;102581.25;5095002;28;20040;-36
2023/05/31 01:50:51;;;;;;;3.75;3.05;;;;;;;11.77;100.00;102579.06;5095050;28;20034;-36
2023/05/31 01:53:16;;;;;;;4.18;3.20;;;;;;;11.81;100.00;102577.66;5094382;28;20546;-36
2023/05/31 01:55:43;;;;;;;4.40;3.53;;;;;;;11.77;100.00;102576.34;5094862;28;20066;-41
2023/05/31 01:58:10;;;;;;;4.25;3.40;;;;;;;11.73;100.00;102565.06;5095361;28;20073;-36
2023/05/31 02:00:36;;;;;;;3.55;3.25;;;;;;;11.73;100.00;102572.34;5095585;28;20052;-36
2023/05/31 02:03:04;;;;;;;6.10;2.83;;;;;;;11.65;100.00;102559.78;5094145;28;20103;-36
2023/05/31 02:05:29;;;;;;;4.10;3.20;;;;;;;11.64;100.00;102573.53;5095235;28;20466;-36
2023/05/31 02:07:55;;;;;;;3.80;3.50;;;;;;;11.55;100.00;102565.53;5094386;28;20024;-37
2023/05/31 02:10:21;;;;;;;4.15;3.65;;;;;;;11.58;100.00;102562.44;5094942;28;20441;-36
2023/05/31 02:12:50;;;;;;;4.28;3.63;;;;;;;11.47;100.00;102568.41;5094284;28;20111;-35
2023/05/31 02:15:16;;;;;;;5.45;3.38;;;;;;;11.41;100.00;102558.31;5094836;28;20420;-35
2023/05/31 02:17:42;;;;;;;;;;;;;;;11.59;100.00;102564.09;5094665;28;20507;-36
2023/05/31 02:20:14;;;;;;;4.03;3.30;;;;;;;11.52;100.00;102567.81;5094955;28;19912;-36
2023/05/31 02:22:44;;;;;;;4.25;3.85;;;;;;;11.55;100.00;102562.81;5094384;28;20472;-36
2023/05/31 02:25:10;;;;;;;5.07;3.85;;;;;;;11.48;100.00;102561.09;5094030;28;20553;-37
2023/05/31 02:27:36;;;;;;;4.32;3.63;;;;;;;11.46;100.00;102558.56;5094083;28;20055;-36
2023/05/31 02:30:04;;;;;;;;;;;;;;;11.58;100.00;102564.31;5094185;28;20153;-36
2023/05/31 02:32:31;;;;;;;4.50;3.67;;;;;;;11.40;100.00;102570.19;5094260;28;19908;-37
2023/05/31 02:34:56;;;;;;;5.00;4.10;;;;;;;11.45;100.00;102570.44;5094222;28;20035;-36
2023/05/31 02:37:21;;;;;;;6.23;4.00;;;;;;;11.40;100.00;102559.34;5094580;28;20028;-37
2023/05/31 02:39:48;;;;;;;3.97;3.40;;;;;;;11.39;100.00;102546.84;5094050;28;20285;-36
2023/05/31 02:42:14;;;;;;;4.32;3.92;;;;;;;11.45;100.00;102554.19;5094387;28;20492;-37
2023/05/31 02:44:39;;;;;;;4.72;4.20;;;;;;;11.41;100.00;102565.63;5094607;28;20024;-36
2023/05/31 02:47:05;;;;;;;4.93;4.18;;;;;;;11.34;100.00;102562.84;5093819;28;20035;-36
2023/05/31 02:49:30;;;;;;;5.35;4.45;;;;;;;11.39;100.00;102563.09;5093811;28;20028;-36
2023/05/31 02:51:55;;;;;;;4.93;4.00;;;;;;;11.32;100.00;102556.78;5094076;28;20035;-36
2023/05/31 02:54:21;;;;;;;5.87;4.40;;;;;;;11.36;100.00;102566.19;5093753;28;20280;-36
2023/05/31 02:56:47;;;;;;;8.30;4.65;;;;;;;11.20;100.00;102555.63;5094023;28;20024;-36
2023/05/31 02:59:12;;;;;;;5.32;4.32;;;;;;;11.20;100.00;102558.34;5093945;28;20105;-36
2023/05/31 03:01:38;;;;;;;5.53;5.00;;;;;;;11.22;100.00;102553.56;5093740;28;20116;-36
2023/05/31 03:04:03;;;;;;;5.07;4.57;;;;;;;11.19;100.00;102557.50;5094202;28;20276;-36
2023/05/31 03:06:28;;;;;;;4.73;4.27;;;;;;;11.23;100.00;102557.97;5093688;28;20024;-36
2023/05/31 03:08:54;;;;;;;6.60;5.10;;;;;;;11.19;100.00;102559.38;5093362;28;20738;-36
2023/05/31 03:11:19;;;;;;;5.77;4.73;;;;;;;11.21;100.00;102562.72;5093886;28;20044;-36
2023/05/31 03:13:44;;;;;;;5.37;4.80;;;;;;;11.09;100.00;102551.56;5094127;28;20269;-36
2023/05/31 03:16:09;;;;;;;6.10;4.90;;;;;;;11.16;100.00;102570.59;5094211;28;20031;-36
2023/05/31 03:18:35;;;;;;;4.97;4.50;;;;;;;11.16;100.00;102573.28;5093805;28;20332;-36
2023/05/31 03:21:00;;;;;;;5.87;4.57;;;;;;;11.13;100.00;102573.69;5094020;28;20032;-36
2023/05/31 03:23:26;;;;;;;5.45;4.70;;;;;;;11.16;100.00;102563.28;5093508;28;20626;-36
2023/05/31 03:25:51;;;;;;;6.47;5.50;;;;;;;11.20;100.00;102566.47;5093729;28;20419;-36
2023/05/31 03:28:16;;;;;;;5.37;4.60;;;;;;;11.19;100.00;102565.63;5093479;28;20485;-35
2023/05/31 03:30:42;;;;;;;6.17;5.20;;;;;;;11.17;100.00;102566.84;5093394;28;20614;-36
2023/05/31 03:33:08;;;;;;;6.87;5.60;;;;;;;11.20;100.00;102566.47;5093088;28;20304;-36
2023/05/31 03:35:34;;;;;;;6.55;5.45;;;;;;;11.09;100.00;102552.41;5093931;28;20020;-36
2023/05/31 03:37:59;;;;;;;7.60;5.33;;;;;;;11.14;100.00;102559.13;5093085;28;20491;-36
2023/05/31 03:40:24;;;;;;;6.17;5.57;;;;;;;11.16;100.00;102563.28;5093320;28;20270;-36
2023/05/31 03:42:50;;;;;;;5.70;5.10;;;;;;;11.08;100.00;102541.78;5093550;28;20542;-36
2023/05/31 03:45:15;;;;;;;6.33;5.47;;;;;;;11.13;100.00;102546.63;5093650;28;20246;-36
2023/05/31 03:47:40;;;;;;;6.88;6.18;;;;;;;11.18;100.00;102555.00;5097175;28;20024;-36
2023/05/31 03:50:07;;;;;;;6.57;5.40;;;;;;;11.20;100.00;102551.06;5096978;28;20043;-36
2023/05/31 03:52:32;;;;;;;;;;;;;;;11.29;100.00;102552.59;5097432;28;20246;-36
2023/05/31 03:54:57;;;;;;;9.40;6.28;;;;;;;11.22;100.00;102556.25;5096972;28;19915;-36
2023/05/31 03:57:22;;;;;;;6.87;5.37;;;;;;;11.24;100.00;102560.47;5097183;28;20472;-36
2023/05/31 03:59:48;;;;;;;7.03;6.30;;;;;;;11.26;100.00;102555.69;5097004;28;20308;-36
2023/05/31 04:02:14;;;;;;;7.07;6.25;;;;;;;11.17;100.00;102550.59;5097698;28;20276;-36
2023/05/31 04:04:39;;;;;;;7.60;6.00;;;;;;;11.18;100.00;102558.53;5096717;28;20034;-36
2023/05/31 04:07:05;;;;;;;6.60;5.70;;;;;;;11.27;100.00;102561.94;5096472;28;20085;-37
2023/05/31 04:09:30;;;;;;;6.88;6.18;;;;;;;11.28;100.00;102550.09;5097476;28;20123;-37
2023/05/31 04:11:56;;;;;;;6.78;6.07;;;;;;;11.25;100.00;102545.06;5096619;28;20422;-36
2023/05/31 04:14:21;;;;;;;8.60;6.53;;;;;;;11.28;100.00;102552.81;5096591;28;20028;-36
2023/05/31 04:16:47;;;;;;;6.80;6.00;;;;;;;11.26;100.00;102552.13;5097137;28;20027;-36
2023/05/31 04:19:13;;;;;;;6.70;6.10;;;;;;;11.32;100.00;102562.19;5096379;28;20369;-36
2023/05/31 04:21:38;;;;;;;7.65;6.57;;;;;;;11.30;100.00;102548.03;5097314;28;20103;-36
2023/05/31 04:24:04;;;;;;;9.23;6.83;;;;;;;11.35;100.00;102559.09;5096684;28;20448;-36
2023/05/31 04:26:32;;;;;;;9.50;7.03;;;;;;;11.32;100.00;102554.94;5097198;28;20024;-36
2023/05/31 04:28:57;;;;;;;8.32;6.95;;;;;;;11.38;100.00;102550.59;5096276;28;20027;-36
2023/05/31 04:31:28;;;;;;;7.65;6.32;;;;;;;11.45;100.00;102556.91;5096292;28;20024;-36
2023/05/31 04:33:56;;;;;;;8.77;6.55;;;;;;;11.43;100.00;102558.97;5095918;28;20464;-36
2023/05/31 04:36:25;;;;;;;8.98;7.10;;;;;;;11.54;100.00;102555.72;5095874;28;20028;-36
2023/05/31 04:38:51;;;;;;;7.43;6.65;;;;;;;11.57;100.00;102563.47;5096877;28;20036;-36
2023/05/31 04:41:17;;;;;;;11.13;7.50;;;;;;;11.57;100.00;102554.53;5096099;28;20431;-36
2023/05/31 04:43:43;;;;;;;8.77;6.85;;;;;;;11.57;100.00;102552.66;5096305;28;20383;-36
2023/05/31 04:46:09;;;;;;;9.93;7.15;;;;;;;11.73;100.00;102558.81;5096358;28;20032;-35
2023/05/31 04:48:34;;;;;;;;;;;;;;;11.86;100.00;102561.66;5096440;28;20468;-36
2023/05/31 04:51:00;;;;;;;10.20;7.63;;;;;;;11.90;100.00;102562.06;5096192;28;19915;-36
2023/05/31 04:53:25;;;;;;;8.73;7.57;;;;;;;11.87;100.00;102567.91;5096098;28;20460;-36
2023/05/31 04:55:51;;;;;;;12.27;7.32;;;;;;;11.99;100.00;102569.03;5095318;28;20032;-36
2023/05/31 04:58:19;;;;;;;8.82;7.47;;;;;;;12.02;100.00;102566.75;5095251;28;20028;-37
2023/05/31 05:00:45;;;;;;;9.30;7.80;;;;;;;11.88;100.00;102551.44;5095411;28;20075;-37
2023/05/31 05:03:11;;;;;;;8.02;6.90;;;;;;;12.07;100.00;102566.16;5095367;28;20032;-37
2023/05/31 05:05:36;;;;;;;7.78;7.00;;;;;;;12.19;100.00;102569.16;5095360;28;20084;-37
2023/05/31 05:08:02;;;;;;;7.93;7.13;;;;;;;12.32;100.00;102564.63;5095499;28;20024;-37
2023/05/31 05:10:27;;;;;;;9.13;7.22;;;;;;;12.43;100.00;102567.81;5096101;28;20043;-37
2023/05/31 05:12:52;;;;;;;9.27;6.85;;;;;;;12.48;100.00;102565.34;5095145;28;20111;-37
2023/05/31 05:15:18;;;;;;;8.43;7.53;;;;;;;12.59;100.00;102571.03;5095157;28;20035;-37
2023/05/31 05:17:44;;;;;;;11.00;7.53;;;;;;;12.57;100.00;102564.97;5095369;28;20363;-37
2023/05/31 05:20:10;;;;;;;10.88;7.35;;;;;;;12.58;100.00;102557.66;5095566;28;20024;-37
2023/05/31 05:22:35;;;;;;;12.50;8.10;;;;;;;12.54;100.00;102556.38;5095594;28;20190;-37
2023/05/31 05:25:01;;;;;;;11.70;8.07;;;;;;;12.71;100.00;102568.56;5095806;28;20036;-37
2023/05/31 05:27:26;;;;;;;9.40;8.00;;;;;;;12.75;100.00;102569.00;5095731;28;20028;-37
2023/05/31 05:29:52;;;;;;;9.23;7.63;;;;;;;12.87;100.00;102578.22;5094898;28;20027;-37
2023/05/31 05:32:17;;;;;;;;;;;;;;;13.03;100.00;102568.84;5095216;28;20030;-36
2023/05/31 05:34:43;;;;;;;10.30;8.23;;;;;;;13.06;100.00;102565.75;5094732;28;19908;-36
2023/05/31 05:37:08;;;;;;;12.35;8.40;;;;;;;13.18;100.00;102564.09;5095637;28;20266;-36
2023/05/31 05:39:34;;;;;;;8.60;7.70;;;;;;;13.22;100.00;102570.81;5094915;28;20097;-36
2023/05/31 05:42:01;;;;;;;10.18;7.72;;;;;;;13.26;100.00;102576.66;5095717;28;20024;-36
2023/05/31 05:44:26;;;;;;;10.70;8.18;;;;;;;13.26;100.00;102584.81;5095019;28;20054;-36
2023/05/31 05:46:51;;;;;;;;;;;;;;;13.39;100.00;102582.13;5095853;28;20105;-36
2023/05/31 05:49:16;;;;;;;8.30;7.40;;;;;;;13.30;100.00;102569.78;5094513;28;20013;-36
2023/05/31 05:51:42;;;;;;;9.93;8.13;;;;;;;13.32;100.00;102582.13;5094751;28;20290;-37
2023/05/31 05:54:07;;;;;;;;;;;;;;;13.53;100.00;102578.38;5094735;28;20035;-36
2023/05/31 05:56:32;;;;;;;8.13;7.33;;;;;;;13.55;100.00;102580.88;5094284;28;19908;-36
2023/05/31 05:58:58;;;;;;;10.30;7.80;;;;;;;13.56;100.00;102571.69;5094406;28;20301;-36
2023/05/31 06:01:26;;;;;;;;;;;;;;;13.74;100.00;102571.88;5095505;28;20107;-36
2023/05/31 06:03:52;;;;;;;9.50;7.97;;;;;;;13.63;100.00;102576.09;5094366;28;20007;-36
2023/05/31 06:06:18;;;;;;;8.52;7.63;;;;;;;13.70;100.00;102581.50;5094718;28;20036;-35
2023/05/31 06:08:43;;;;;;;;;;;;;;;13.84;100.00;102580.47;5094284;28;20054;-36
2023/05/31 06:11:09;;;;;;;10.27;8.80;;;;;;;13.77;100.00;102573.38;5094304;28;20378;-37
2023/05/31 06:13:34;;;;;;;10.02;7.97;;;;;;;13.80;100.00;102583.81;5094561;28;20032;-36
2023/05/31 06:16:01;;;;;;;10.48;7.90;;;;;;;13.84;100.00;102579.63;5094837;28;20116;-36
2023/05/31 06:18:27;;;;;;;13.20;8.43;;;;;;;13.85;100.00;102575.84;5094180;28;20119;-36
2023/05/31 06:20:53;;;;;;;;;;;;;;;14.04;100.00;102577.72;5094567;28;20110;-36
2023/05/31 06:23:18;;;;;;;9.27;6.95;;;;;;;14.14;100.00;102572.66;5094038;28;19919;-36
2023/05/31 06:25:44;;;;;;;;;;;;;;;14.26;100.00;102574.75;5094876;28;20375;-36
2023/05/31 06:28:10;;;;;;;10.73;8.23;;;;;;;14.14;100.00;102580.00;5093737;28;20379;-36
2023/05/31 06:30:35;;;;;;;;;;;;;;;14.26;100.00;102585.63;5094768;28;20081;-36
2023/05/31 06:33:00;;;;;;;8.87;7.47;;;;;;;14.26;100.00;102582.91;5094204;28;19912;-36
2023/05/31 06:35:26;;;;;;;8.70;7.70;;;;;;;14.33;100.00;102583.72;5094672;28;20258;-36
2023/05/31 06:37:51;;;;;;;12.13;8.98;;;;;;;14.21;100.00;102575.38;5093672;28;20262;-37
2023/05/31 06:40:17;;;;;;;9.48;8.07;;;;;;;14.15;100.00;102589.81;5094216;28;20032;-36
2023/05/31 06:42:43;;;;;;;9.73;8.52;;;;;;;14.28;100.00;102580.81;5093881;28;20430;-36
2023/05/31 06:45:08;;;;;;;;;;;;;;;14.54;100.00;102579.91;5094615;28;20039;-36
2023/05/31 06:47:33;;;;;;;10.23;8.13;;;;;;;14.67;100.00;102583.41;5094081;28;20394;-36
2023/05/31 06:49:59;;;;;;;;;;;;;;;14.79;100.00;102582.75;5094176;28;20124;-36
2023/05/31 06:52:24;;;;;;;9.93;8.27;;;;;;;14.74;99.85;102574.38;5094595;28;19955;-36
2023/05/31 06:54:50;;;;;;;;;;;;;;;14.93;100.00;102579.75;5094442;28;20047;-36
2023/05/31 06:57:15;;;;;;;10.07;7.53;;;;;;;14.79;99.12;102571.88;5094293;28;19908;-36
2023/05/31 06:59:40;;;;;;;;;;;;;;;15.01;98.19;102581.34;5094234;28;20044;-36
2023/05/31 07:02:06;;;;;;;9.45;8.05;;;;;;;14.98;98.26;102586.41;5093535;28;19919;-36
2023/05/31 07:04:32;;;;;;;;;;;;;;;15.08;98.21;102586.75;5094029;28;20058;-37
2023/05/31 07:06:57;;;;;;;11.07;7.47;;;;;;;14.98;97.35;102570.06;5093356;28;19912;-36
2023/05/31 07:09:22;;;;;;;9.03;8.00;;;;;;;15.02;96.95;102576.75;5093539;28;20285;-36
2023/05/31 07:11:48;;;;;;;;;;;;;;;15.24;97.44;102590.88;5093411;28;20262;-37
2023/05/31 07:14:13;;;;;;;9.07;7.43;;;;;;;15.34;97.71;102585.78;5093462;28;19951;-36
2023/05/31 07:16:38;;;;;;;;;;;;;;;15.50;97.03;102589.84;5094508;28;20024;-36
2023/05/31 07:19:04;;;;;;;11.00;7.00;;;;;;;15.60;96.36;102580.09;5093397;28;19919;-36
2023/05/31 07:21:29;;;;;;;9.15;6.93;;;;;;;15.72;95.69;102573.97;5095868;28;20267;-37
2023/05/31 07:23:55;;;;;;;;;;;;;;;15.84;95.45;102569.44;5098015;28;20058;-37
2023/05/31 07:26:20;;;;;;;8.70;7.05;;;;;;;15.85;94.20;102571.09;5097785;28;20355;-37
2023/05/31 07:28:46;;;;;;;;;;;;;;;15.96;93.17;102573.13;5097864;28;20020;-37
2023/05/31 07:31:17;;;;;;;12.38;8.15;;;;;;;15.70;92.12;102566.00;5097983;28;19908;-37
2023/05/31 07:33:43;;;;;;;11.70;7.75;;;;;;;15.75;92.83;102555.25;5097398;28;20032;-37
2023/05/31 07:36:08;;;;;;;;;;;;;;;16.01;93.50;102561.53;5097497;28;20077;-36
2023/05/31 07:38:34;;;;;;;8.05;6.82;;;;;;;16.04;91.87;102559.16;5097362;28;19908;-37
2023/05/31 07:40:59;;;;;;;;;;;;;;;16.16;91.29;102560.09;5098488;28;20024;-36
2023/05/31 07:43:25;;;;;;;10.32;7.13;;;;;;;16.15;90.41;102554.84;5097735;28;20298;-36
2023/05/31 07:45:50;;;;;;;;;;;;;;;16.32;91.88;102563.28;5098460;28;20036;-37
2023/05/31 07:48:19;;;;;;;9.27;6.88;;;;;;;16.45;92.36;102557.69;5096791;28;19912;-37
2023/05/31 07:50:45;;;;;;;9.32;7.60;;;;;;;16.53;91.18;102551.06;5097015;28;20039;-37
2023/05/31 07:53:11;;;;;;;9.05;6.90;;;;;;;16.65;89.63;102544.59;5096676;28;20028;-37
2023/05/31 07:55:37;;;;;;;;;;;;;;;16.89;89.59;102547.47;5098280;28;20024;-37
2023/05/31 07:58:03;;;;;;;10.48;6.85;;;;;;;17.03;88.95;102542.63;5096862;28;19912;-37
2023/05/31 08:00:28;;;;;;;;;;;;;;;17.14;86.29;102553.59;5097037;28;20539;-37
2023/05/31 08:02:54;;;;;;;9.93;6.95;;;;;;;17.08;86.34;102549.06;5096652;28;19916;-37
2023/05/31 08:05:19;;;;;;;;;;;;;;;17.27;87.51;102548.97;5097286;28;20059;-37
2023/05/31 08:07:44;;;;;;;9.65;6.93;;;;;;;17.26;86.84;102545.41;5096640;28;20276;-37
2023/05/31 08:10:11;;;;;;;;;;;;;;;17.45;87.96;102537.97;5098012;28;20114;-37
2023/05/31 08:12:36;;;;;;;9.57;7.00;;;;;;;17.41;83.66;102542.22;5096640;28;19912;-37
2023/05/31 08:15:02;;;;;;;10.88;7.30;;;;;;;17.52;85.48;102533.22;5096888;28;20354;-37
2023/05/31 08:17:28;;;;;;;;;;;;;;;17.71;87.29;102544.88;5097610;28;20028;-37
2023/05/31 08:19:53;;;;;;;12.38;7.45;;;;;;;17.77;83.19;102543.97;5097005;28;19959;-37
2023/05/31 08:22:19;;;;;;;12.43;6.30;;;;;;;17.93;82.88;102534.22;5096954;28;20527;-37
2023/05/31 08:24:44;;;;;;;;;;;;;;;18.02;80.99;102528.13;5096539;28;20024;-37
2023/05/31 08:27:09;;;;;;;9.75;7.35;;;;;;;17.98;81.60;102528.84;5096644;28;19966;-37
2023/05/31 08:29:35;;;;;;;;;;;;;;;18.13;83.76;102534.66;5096760;28;20054;-37
2023/05/31 08:32:00;;;;;;;9.93;6.45;;;;;;;18.19;82.37;102516.44;5096374;28;19908;-37
2023/05/31 08:34:27;;;;;;;9.55;6.38;;;;;;;18.38;80.13;102528.06;5095953;28;20032;-37
2023/05/31 08:36:52;;;;;;;9.88;6.50;;;;;;;18.48;78.83;102522.78;5096512;28;20369;-37
2023/05/31 08:39:18;;;;;;;;;;;;;;;18.71;81.64;102522.72;5096249;28;20047;-37
2023/05/31 08:41:57;;;;;;;8.43;5.95;;;;;;;18.87;78.67;102528.50;5096892;28;19916;-37
2023/05/31 08:44:23;;;;;;;7.78;5.85;;;;;;;19.06;77.78;102526.38;5095683;28;20494;-37
2023/05/31 08:46:48;;;;;;;9.07;6.13;;;;;;;19.08;76.36;102522.31;5096266;28;20466;-37
2023/05/31 08:49:16;;;;;;;;;;;;;;;19.35;77.42;102519.75;5096367;28;20035;-36
2023/05/31 08:51:45;;;;;;;8.85;6.13;;;;;;;19.24;75.48;102513.25;5096420;28;20366;-37
2023/05/31 08:54:11;;;;;;;9.15;5.88;;;;;;;19.46;75.18;102512.50;5096670;28;20028;-37
2023/05/31 08:56:37;;;;;;;;;;;;;;;19.58;72.63;102518.75;5097135;28;20031;-37
2023/05/31 08:59:04;;;;;;;7.88;5.25;;;;;;;19.67;76.29;102506.28;5095667;28;19912;-37
2023/05/31 09:01:31;;;;;;;11.38;5.80;;;;;;;19.65;72.98;102502.94;5096851;28;20051;-38
2023/05/31 09:03:56;;;;;;;8.40;5.93;;;;;;;19.76;72.27;102513.03;5096444;28;20032;-37
2023/05/31 09:06:22;;;;;;;8.38;5.78;;;;;;;19.90;71.90;102509.88;5095661;28;20031;-36
2023/05/31 09:08:48;;;;;;;8.50;5.25;;;;;;;19.96;71.88;102506.13;5095527;28;20028;-37
2023/05/31 09:11:14;;;;;;;13.48;6.53;;;;;;;20.08;71.20;102515.09;5095825;28;20388;-36
2023/05/31 09:13:40;;;;;;;7.50;5.47;;;;;;;20.20;70.55;102507.53;5095226;28;20043;-37
2023/05/31 09:16:05;;;;;;;7.88;5.10;;;;;;;20.22;70.07;102508.13;5095773;28;20040;-36
2023/05/31 09:18:39;;;;;;;7.93;5.63;;;;;;;20.26;69.65;102509.28;5095413;28;20376;-37
2023/05/31 09:21:09;;;;;;;10.18;5.28;;;;;;;20.25;68.82;102496.66;5096079;28;20031;-36
2023/05/31 09:23:35;;;;;;;7.10;4.97;;;;;;;20.54;69.21;102500.00;5095787;28;20368;-36
2023/05/31 09:26:01;;;;;;;10.32;5.90;;;;;;;20.51;68.09;102484.06;5095231;28;20460;-37
2023/05/31 09:28:27;;;;;;;7.90;5.13;;;;;;;20.79;67.42;102487.66;5095154;28;20028;-37
2023/05/31 09:31:05;;;;;;;12.55;6.00;;;;;;;21.03;67.76;102490.88;5095981;28;20459;-36
2023/05/31 09:33:41;;;;;;;6.65;5.30;;;;;;;21.07;65.96;102492.00;5095477;28;20016;-36
2023/05/31 09:36:07;;;;;;;8.75;5.03;;;;;;;21.16;64.59;102490.44;5094734;28;20097;-41
2023/05/31 09:38:34;;;;;;;8.65;5.45;;;;;;;21.14;63.48;102487.13;5094616;28;20465;-37
2023/05/31 09:41:15;;;;;;;6.38;4.43;;;;;;;21.36;64.85;102478.81;5094511;28;20024;-37
2023/05/31 09:43:42;;;;;;;7.07;4.55;;;;;;;21.48;63.55;102478.63;5092477;28;20024;-37
2023/05/31 09:46:12;;;;;;;6.18;4.18;;;;;;;21.70;65.33;102470.22;5094563;28;20028;-37
2023/05/31 09:48:37;;;;;;;7.20;4.57;;;;;;;21.84;63.03;102474.97;5094497;28;20036;-37
2023/05/31 09:51:07;;;;;;;6.55;4.68;;;;;;;21.83;62.05;102473.31;5095272;28;20444;-37
2023/05/31 09:53:37;;;;;;;7.43;4.70;;;;;;;21.95;62.35;102464.00;5093084;28;20431;-37
2023/05/31 09:56:08;;;;;;;8.27;4.43;;;;;;;22.20;61.15;102468.81;5094648;28;20035;-37
2023/05/31 09:58:34;;;;;;;9.48;4.70;;;;;;;22.19;58.51;102465.25;5094643;28;20093;-37
2023/05/31 10:01:00;;;;;;;7.00;4.13;;;;;;;22.24;57.26;102456.16;5095319;28;20460;-37
2023/05/31 10:03:28;;;;;;;7.32;4.05;;;;;;;22.34;59.06;102461.72;5094229;28;20032;-37
2023/05/31 10:05:53;;;;;;;5.97;3.83;;;;;;;22.34;57.92;102454.25;5094491;28;20036;-37
2023/05/31 10:08:21;;;;;;;6.43;4.22;;;;;;;22.30;56.99;102461.44;5094434;28;20028;-37
2023/05/31 10:10:47;;;;;;;8.38;4.32;;;;;;;22.27;58.66;102461.97;5094704;28;20115;-37
2023/05/31 10:13:14;;;;;;;6.53;3.78;;;;;;;22.38;57.24;102454.56;5094906;28;20047;-37
2023/05/31 10:15:41;;;;;;;8.23;4.10;;;;;;;22.31;56.31;102463.09;5093847;28;20376;-37
2023/05/31 10:18:10;;;;;;;4.78;3.20;;;;;;;22.44;55.67;102444.38;5094295;28;20035;-37
2023/05/31 10:20:43;;;;;;;10.68;4.22;;;;;;;22.47;55.62;102457.63;5094782;28;20052;-37
2023/05/31 10:23:19;;;;;;;4.88;3.63;;;;;;;22.52;56.06;102447.41;5094163;28;20031;-37
2023/05/31 10:25:51;;;;;;;5.82;3.20;;;;;;;22.71;55.11;102452.41;5095047;28;20352;-37
2023/05/31 10:28:21;;;;;;;5.68;2.78;;;;;;;22.81;52.27;102444.97;5094121;28;20028;-37
2023/05/31 10:30:49;;;;;;;6.80;2.80;;;;;;;22.99;52.96;102440.88;5094347;28;20036;-37
2023/05/31 10:33:17;;;;;;;7.20;3.40;;;;;;;23.16;55.96;102437.84;5093941;28;20024;-37
2023/05/31 10:35:44;;;;;;;6.40;3.17;;;;;;;23.00;51.26;102433.44;5094760;28;20108;-37
2023/05/31 10:38:10;;;;;;;4.57;2.80;;;;;;;23.09;50.50;102429.03;5093874;28;20365;-37
2023/05/31 10:40:39;;;;;;;5.32;3.10;;;;;;;23.10;51.00;102422.41;5094111;28;20388;-37
2023/05/31 10:43:18;;;;;;;6.38;3.45;;;;;;;22.93;53.18;102413.56;5093859;28;20043;-37
2023/05/31 10:45:51;;;;;;;6.93;3.05;;;;;;;23.07;53.20;102415.47;5093522;28;20360;-37
2023/05/31 10:48:23;;;;;;;6.85;2.75;;;;;;;23.49;55.19;102416.25;5094140;28;20129;-38
2023/05/31 10:50:59;;;;;;;5.28;2.55;;;;;;;23.34;48.56;102415.19;5093554;28;20085;-37
2023/05/31 10:53:30;;;;;;;3.75;1.67;;;;;;;23.81;48.13;102400.13;5094057;28;20031;-37
2023/05/31 10:56:03;;;;;;;5.85;2.10;;;;;;;23.68;48.30;102403.53;5093550;28;20063;-37
2023/05/31 10:58:30;;;;;;;5.70;2.28;;;;;;;23.70;47.84;102401.28;5094524;28;20027;-37
2023/05/31 11:00:56;;;;;;;6.57;1.90;;;;;;;23.58;46.54;102398.00;5094344;28;20092;-37
2023/05/31 11:03:23;;;;;;;5.60;1.88;;;;;;;23.59;47.78;102402.41;5094210;28;20080;-37
2023/05/31 11:06:03;;;;;;;4.72;2.05;;;;;;;23.74;48.00;102401.56;5093688;28;20027;-37
2023/05/31 11:08:28;;;;;;;5.30;2.42;;;;;;;23.96;48.85;102393.75;5094469;28;20043;-37
2023/05/31 11:11:25;;;;;;;4.90;2.25;;;;;;;23.79;46.74;102402.38;5093670;28;20028;-37
2023/05/31 11:14:03;;;;;;;5.13;2.20;;;;;;;23.88;48.82;102403.44;5093487;28;20024;-37
2023/05/31 11:16:33;;;;;;;4.57;1.92;;;;;;;23.78;45.77;102392.44;5094374;28;20115;-37
2023/05/31 11:19:17;;;;;;;5.38;1.73;;;;;;;23.88;45.90;102388.78;5093745;28;20139;-37
2023/05/31 11:21:56;;;;;;;4.85;2.00;;;;;;;23.92;45.09;102386.31;5094331;28;20393;-37
2023/05/31 11:24:28;;;;;;;9.20;2.15;;;;;;;23.94;45.33;102384.06;5093667;28;20024;-37
2023/05/31 11:26:57;;;;;;;5.95;2.25;;;;;;;24.12;45.85;102377.91;5093444;28;20029;-37
2023/05/31 11:29:22;;;;;;;4.65;2.25;;;;;;;23.82;44.36;102390.75;5093365;28;20032;-37